createdAt,value
2023-04-20T00:02:15.565Z,19.78
2023-04-20T00:04:42.670Z,19.77
2023-04-20T00:07:09.536Z,19.74
2023-04-20T00:09:36.082Z,19.79
2023-04-20T00:12:02.588Z,19.76
2023-04-20T00:14:29.126Z,19.73
2023-04-20T00:16:55.856Z,19.75
2023-04-20T00:19:22.376Z,19.75
2023-04-20T00:21:49.026Z,19.74
2023-04-20T00:24:15.761Z,19.73
2023-04-20T00:26:42.176Z,19.74
2023-04-20T00:29:08.602Z,19.73
2023-04-20T00:31:35.008Z,19.74
2023-04-20T00:34:01.429Z,19.73
2023-04-20T00:36:27.899Z,19.72
2023-04-20T00:38:54.305Z,19.71
2023-04-20T00:41:21.330Z,19.71
2023-04-20T00:43:52.404Z,19.70
2023-04-20T00:46:20.811Z,19.71
2023-04-20T00:48:49.649Z,19.68
2023-04-20T00:51:16.225Z,19.69
2023-04-20T00:53:42.773Z,19.71
2023-04-20T00:56:09.375Z,19.66
2023-04-20T00:58:35.999Z,19.66
2023-04-20T01:01:02.439Z,19.65
2023-04-20T01:03:29.013Z,19.64
2023-04-20T01:05:55.778Z,19.62
2023-04-20T01:08:26.412Z,19.63
2023-04-20T01:10:54.194Z,19.60
2023-04-20T01:13:20.753Z,19.63
2023-04-20T01:15:47.236Z,19.63
2023-04-20T01:18:14.251Z,19.63
2023-04-20T01:20:40.743Z,19.65
2023-04-20T01:23:07.204Z,19.61
2023-04-20T01:25:33.641Z,19.63
2023-04-20T01:28:00.452Z,19.61
2023-04-20T01:30:26.898Z,19.60
2023-04-20T01:32:53.398Z,19.58
2023-04-20T01:35:19.857Z,19.58
2023-04-20T01:37:46.357Z,19.60
2023-04-20T01:40:13.777Z,19.56
2023-04-20T01:42:40.552Z,19.55
2023-04-20T01:45:07.520Z,19.58
2023-04-20T01:47:34.710Z,19.57
2023-04-20T01:50:01.184Z,19.59
2023-04-20T01:52:27.624Z,19.57
2023-04-20T01:54:54.101Z,19.57
2023-04-20T01:57:20.549Z,19.58
2023-04-20T01:59:46.964Z,19.57
2023-04-20T02:02:13.451Z,19.53
2023-04-20T02:04:40.024Z,19.54
2023-04-20T02:07:06.433Z,19.55
2023-04-20T02:09:32.877Z,19.51
2023-04-20T02:11:59.302Z,19.51
2023-04-20T02:14:25.765Z,19.51
2023-04-20T02:16:53.401Z,19.50
2023-04-20T02:19:19.944Z,19.52
2023-04-20T02:21:46.354Z,19.50
2023-04-20T02:24:12.793Z,19.53
2023-04-20T02:26:39.200Z,19.54
2023-04-20T02:29:05.737Z,19.54
2023-04-20T02:31:32.221Z,19.56
2023-04-20T02:33:58.761Z,19.56
2023-04-20T02:36:25.178Z,19.52
2023-04-20T02:38:51.624Z,19.52
2023-04-20T02:41:18.888Z,19.52
2023-04-20T02:43:45.395Z,19.50
2023-04-20T02:46:11.877Z,19.51
2023-04-20T02:48:38.310Z,19.49
2023-04-20T02:51:04.754Z,19.49
2023-04-20T02:53:31.208Z,19.50
2023-04-20T02:55:57.690Z,19.53
2023-04-20T02:58:24.172Z,19.49
2023-04-20T03:00:50.627Z,19.51
2023-04-20T03:03:17.706Z,19.46
2023-04-20T03:05:44.241Z,19.42
2023-04-20T03:08:10.678Z,19.42
2023-04-20T03:10:37.294Z,19.47
2023-04-20T03:13:03.753Z,19.48
2023-04-20T03:15:30.219Z,19.47
2023-04-20T03:17:56.714Z,19.49
2023-04-20T03:20:23.176Z,19.48
2023-04-20T03:22:49.773Z,19.46
2023-04-20T03:25:16.380Z,19.41
2023-04-20T03:27:42.878Z,19.46
2023-04-20T03:30:09.783Z,19.47
2023-04-20T03:32:36.355Z,19.45
2023-04-20T03:35:02.928Z,19.46
2023-04-20T03:37:29.353Z,19.48
2023-04-20T03:39:55.769Z,19.50
2023-04-20T03:42:22.310Z,19.45
2023-04-20T03:44:48.894Z,19.44
2023-04-20T03:47:15.556Z,19.44
2023-04-20T03:49:41.963Z,19.46
2023-04-20T03:52:08.418Z,19.49
2023-04-20T03:54:34.835Z,19.47
2023-04-20T03:57:02.227Z,19.50
2023-04-20T03:59:28.694Z,19.49
2023-04-20T04:01:55.239Z,19.47
2023-04-20T04:04:22.047Z,19.52
2023-04-20T04:06:48.704Z,19.49
2023-04-20T04:09:15.413Z,19.46
2023-04-20T04:11:42.046Z,19.48
2023-04-20T04:14:08.550Z,19.43
2023-04-20T04:16:35.028Z,19.47
2023-04-20T04:19:01.571Z,19.48
2023-04-20T04:21:28.833Z,19.48
2023-04-20T04:23:55.860Z,19.47
2023-04-20T04:26:24.945Z,19.49
2023-04-20T04:28:51.812Z,19.46
2023-04-20T04:31:19.659Z,19.49
2023-04-20T04:33:46.503Z,19.47
2023-04-20T04:36:15.290Z,19.44
2023-04-20T04:38:44.575Z,19.45
2023-04-20T04:41:14.348Z,19.45
2023-04-20T04:43:42.431Z,19.44
2023-04-20T04:46:13.251Z,19.45
2023-04-20T04:48:42.348Z,19.42
2023-04-20T04:51:09.651Z,19.40
2023-04-20T04:53:36.126Z,19.37
2023-04-20T04:56:03.564Z,19.45
2023-04-20T04:58:30.001Z,19.46
2023-04-20T05:00:56.505Z,19.43
2023-04-20T05:03:23.063Z,19.46
2023-04-20T05:05:49.576Z,19.43
2023-04-20T05:08:16.270Z,19.38
2023-04-20T05:10:42.687Z,19.45
2023-04-20T05:13:09.124Z,19.46
2023-04-20T05:15:35.605Z,19.41
2023-04-20T05:18:02.784Z,19.43
2023-04-20T05:20:29.385Z,19.42
2023-04-20T05:22:55.985Z,19.44
2023-04-20T05:25:22.612Z,19.48
2023-04-20T05:27:49.182Z,19.42
2023-04-20T05:30:21.409Z,19.42
2023-04-20T05:32:51.594Z,19.40
2023-04-20T05:35:19.389Z,19.41
2023-04-20T05:37:47.388Z,19.40
2023-04-20T05:40:15.246Z,19.40
2023-04-20T05:42:41.683Z,19.44
2023-04-20T05:45:08.904Z,19.44
2023-04-20T05:47:35.407Z,19.42
2023-04-20T05:50:02.395Z,19.41
2023-04-20T05:52:28.820Z,19.45
2023-04-20T05:54:55.287Z,19.42
2023-04-20T05:57:23.553Z,19.43
2023-04-20T05:59:50.615Z,19.42
2023-04-20T06:02:17.289Z,19.44
2023-04-20T06:04:44.137Z,19.45
2023-04-20T06:07:10.752Z,19.40
2023-04-20T06:09:37.215Z,19.34
2023-04-20T06:12:03.907Z,19.33
2023-04-20T06:14:30.318Z,19.46
2023-04-20T06:16:56.851Z,19.51
2023-04-20T06:19:23.262Z,19.55
2023-04-20T06:21:49.783Z,19.55
2023-04-20T06:24:16.326Z,19.54
2023-04-20T06:26:42.712Z,19.56
2023-04-20T06:29:09.322Z,19.55
2023-04-20T06:31:36.958Z,19.53
2023-04-20T06:34:03.508Z,19.57
2023-04-20T06:36:30.660Z,19.58
2023-04-20T06:38:57.078Z,19.60
2023-04-20T06:41:24.091Z,19.63
2023-04-20T06:43:50.566Z,19.63
2023-04-20T06:46:18.215Z,19.62
2023-04-20T06:48:44.708Z,19.66
2023-04-20T06:51:12.987Z,19.61
2023-04-20T06:53:39.436Z,19.61
2023-04-20T06:56:06.659Z,19.63
2023-04-20T06:58:33.105Z,19.59
2023-04-20T07:00:59.623Z,19.61
2023-04-20T07:03:26.906Z,19.59
2023-04-20T07:05:53.462Z,19.58
2023-04-20T07:08:20.193Z,19.62
2023-04-20T07:10:46.778Z,19.64
2023-04-20T07:13:13.270Z,19.63
2023-04-20T07:15:39.678Z,19.58
2023-04-20T07:18:06.423Z,19.60
2023-04-20T07:20:33.433Z,19.58
2023-04-20T07:22:59.867Z,19.59
2023-04-20T07:25:26.363Z,19.55
2023-04-20T07:27:52.979Z,19.61
2023-04-20T07:30:19.462Z,19.62
2023-04-20T07:32:46.280Z,19.59
2023-04-20T07:35:12.705Z,19.59
2023-04-20T07:37:39.329Z,19.54
2023-04-20T07:40:06.966Z,19.59
2023-04-20T07:42:35.155Z,19.61
2023-04-20T07:45:01.702Z,19.61
2023-04-20T07:47:28.164Z,19.57
2023-04-20T07:49:54.880Z,19.57
2023-04-20T07:52:21.360Z,19.57
2023-04-20T07:54:47.857Z,19.64
2023-04-20T07:57:14.349Z,19.61
2023-04-20T07:59:41.305Z,19.66
2023-04-20T08:02:08.421Z,19.61
2023-04-20T08:04:37.638Z,19.63
2023-04-20T08:07:04.673Z,19.62
2023-04-20T08:09:31.153Z,19.61
2023-04-20T08:11:57.664Z,19.56
2023-04-20T08:14:24.142Z,19.61
2023-04-20T08:16:50.583Z,19.64
2023-04-20T08:19:17.018Z,19.66
2023-04-20T08:21:43.593Z,19.67
2023-04-20T08:24:10.544Z,19.68
2023-04-20T08:26:37.209Z,19.66
2023-04-20T08:29:05.609Z,19.67
2023-04-20T08:31:32.684Z,19.68
2023-04-20T08:33:59.185Z,19.68
2023-04-20T08:36:28.047Z,19.70
2023-04-20T08:39:19.741Z,19.71
2023-04-20T08:41:46.850Z,19.72
2023-04-20T08:44:13.578Z,19.68
2023-04-20T08:46:45.759Z,19.70
2023-04-20T08:49:12.971Z,19.70
2023-04-20T08:51:40.081Z,19.69
2023-04-20T08:54:07.405Z,19.67
2023-04-20T08:56:42.055Z,19.66
2023-04-20T08:59:13.971Z,19.64
2023-04-20T09:01:41.889Z,19.67
2023-04-20T09:04:20.110Z,19.53
2023-04-20T09:06:50.234Z,19.66
2023-04-20T09:09:17.162Z,19.73
2023-04-20T09:11:44.030Z,19.75
2023-04-20T09:14:12.989Z,19.75
2023-04-20T09:17:05.130Z,19.76
2023-04-20T09:19:31.913Z,19.74
2023-04-20T09:22:00.385Z,19.75
2023-04-20T09:24:34.598Z,19.76
2023-04-20T09:27:02.771Z,19.75
2023-04-20T09:29:30.209Z,19.77
2023-04-20T09:31:56.683Z,19.75
2023-04-20T09:34:23.915Z,19.74
2023-04-20T09:36:54.137Z,19.74
2023-04-20T09:39:24.546Z,19.73
2023-04-20T09:41:52.481Z,19.73
2023-04-20T09:44:20.144Z,19.75
2023-04-20T09:46:47.164Z,19.78
2023-04-20T09:49:14.824Z,19.67
2023-04-20T09:51:46.380Z,19.69
2023-04-20T09:54:14.009Z,19.74
2023-04-20T09:56:41.190Z,19.71
2023-04-20T09:59:08.020Z,19.72
2023-04-20T10:01:36.613Z,19.71
2023-04-20T10:04:06.794Z,19.68
2023-04-20T10:06:34.687Z,19.64
2023-04-20T10:09:02.727Z,19.72
2023-04-20T10:11:48.835Z,19.76
2023-04-20T10:14:23.455Z,19.76
2023-04-20T10:17:05.253Z,19.80
2023-04-20T10:19:41.760Z,19.81
2023-04-20T10:22:10.404Z,19.83
2023-04-20T10:24:40.550Z,19.84
2023-04-20T10:27:20.438Z,19.85
2023-04-20T10:29:47.461Z,19.85
2023-04-20T10:32:24.208Z,19.86
2023-04-20T10:35:07.815Z,19.85
2023-04-20T10:37:35.240Z,19.85
2023-04-20T10:40:02.408Z,19.82
2023-04-20T10:42:29.720Z,19.81
2023-04-20T10:44:56.372Z,19.84
2023-04-20T10:47:30.389Z,19.81
2023-04-20T10:50:26.309Z,19.82
2023-04-20T10:52:53.404Z,19.81
2023-04-20T10:55:23.461Z,19.83
2023-04-20T10:57:50.488Z,19.84
2023-04-20T11:00:18.782Z,19.81
2023-04-20T11:02:59.024Z,19.78
2023-04-20T11:05:27.464Z,19.63
2023-04-20T11:08:01.211Z,19.78
2023-04-20T11:10:41.484Z,19.80
2023-04-20T11:13:19.487Z,19.75
2023-04-20T11:15:45.953Z,19.74
2023-04-20T11:18:12.593Z,19.77
2023-04-20T11:20:53.944Z,19.76
2023-04-20T11:23:26.649Z,19.81
2023-04-20T11:25:55.089Z,19.80
2023-04-20T11:28:21.906Z,19.80
2023-04-20T11:30:50.862Z,19.82
2023-04-20T11:33:30.178Z,19.77
2023-04-20T11:35:58.322Z,19.81
2023-04-20T11:38:32.699Z,19.80
2023-04-20T11:41:04.450Z,19.85
2023-04-20T11:43:32.417Z,19.82
2023-04-20T11:46:00.047Z,19.80
2023-04-20T11:48:27.576Z,19.72
2023-04-20T11:50:54.087Z,19.78
2023-04-20T11:53:21.090Z,19.81
2023-04-20T11:55:47.589Z,19.77
2023-04-20T11:58:14.026Z,19.79
2023-04-20T12:00:40.664Z,19.83
2023-04-20T12:03:07.363Z,19.81
2023-04-20T12:05:34.105Z,19.78
2023-04-20T12:08:00.612Z,19.76
2023-04-20T12:10:27.023Z,19.75
2023-04-20T12:12:56.857Z,19.74
2023-04-20T12:15:23.459Z,19.69
2023-04-20T12:17:49.967Z,19.69
2023-04-20T12:20:16.700Z,19.70
2023-04-20T12:22:43.136Z,19.73
2023-04-20T12:25:09.926Z,19.73
2023-04-20T12:27:36.358Z,19.70
2023-04-20T12:30:04.098Z,19.70
2023-04-20T12:32:30.541Z,19.69
2023-04-20T12:34:56.974Z,19.72
2023-04-20T12:37:23.433Z,19.71
2023-04-20T12:39:49.856Z,19.68
2023-04-20T12:42:16.271Z,19.70
2023-04-20T12:44:42.731Z,19.67
2023-04-20T12:47:09.300Z,19.74
2023-04-20T12:49:35.925Z,19.78
2023-04-20T12:52:02.344Z,19.75
2023-04-20T12:54:29.822Z,19.76
2023-04-20T12:56:57.074Z,19.75
2023-04-20T12:59:23.579Z,19.73
2023-04-20T13:01:50.447Z,19.74
2023-04-20T13:04:17.239Z,19.71
2023-04-20T13:06:44.210Z,19.69
2023-04-20T13:09:10.609Z,19.68
2023-04-20T13:11:37.045Z,19.72
2023-04-20T13:14:03.680Z,19.79
2023-04-20T13:16:30.292Z,19.79
2023-04-20T13:18:56.877Z,19.78
2023-04-20T13:21:23.316Z,19.76
2023-04-20T13:23:49.780Z,19.74
2023-04-20T13:26:16.263Z,19.71
2023-04-20T13:28:42.849Z,19.76
2023-04-20T13:31:09.286Z,19.79
2023-04-20T13:33:35.824Z,19.79
2023-04-20T13:36:02.640Z,19.80
2023-04-20T13:38:29.172Z,19.78
2023-04-20T13:40:56.055Z,19.76
2023-04-20T13:43:22.565Z,19.75
2023-04-20T13:45:49.146Z,19.74
2023-04-20T13:48:15.721Z,19.73
2023-04-20T13:50:42.136Z,19.75
2023-04-20T13:53:08.661Z,19.74
2023-04-20T13:55:35.142Z,19.74
2023-04-20T13:58:01.628Z,19.78
2023-04-20T14:00:28.116Z,19.75
2023-04-20T14:02:54.646Z,19.75
2023-04-20T14:05:21.199Z,19.74
2023-04-20T14:07:47.673Z,19.74
2023-04-20T14:10:14.106Z,19.78
2023-04-20T14:12:40.559Z,19.74
2023-04-20T14:15:07.376Z,19.73
2023-04-20T14:17:33.892Z,19.73
2023-04-20T14:20:00.598Z,19.76
2023-04-20T14:22:27.068Z,19.77
2023-04-20T14:24:53.483Z,19.78
2023-04-20T14:27:20.022Z,19.76
2023-04-20T14:29:46.462Z,19.74
2023-04-20T14:32:12.902Z,19.75
2023-04-20T14:34:39.471Z,19.73
2023-04-20T14:37:05.940Z,19.73
2023-04-20T14:39:32.383Z,19.74
2023-04-20T14:41:58.795Z,19.77
2023-04-20T14:44:25.215Z,19.72
2023-04-20T14:46:55.195Z,19.81
2023-04-20T14:49:21.863Z,19.80
2023-04-20T14:51:48.590Z,19.83
2023-04-20T14:54:15.043Z,19.81
2023-04-20T14:56:41.513Z,19.81
2023-04-20T14:59:07.959Z,19.86
2023-04-20T15:01:34.532Z,19.82
2023-04-20T15:04:01.443Z,19.87
2023-04-20T15:06:28.316Z,19.85
2023-04-20T15:08:56.357Z,19.91
2023-04-20T15:11:23.141Z,19.88
2023-04-20T15:13:51.106Z,19.99
2023-04-20T15:16:17.769Z,20.02
2023-04-20T15:18:44.278Z,20.05
2023-04-20T15:21:10.967Z,20.09
2023-04-20T15:23:37.541Z,20.05
2023-04-20T15:26:04.172Z,20.03
2023-04-20T15:28:30.684Z,20.07
2023-04-20T15:30:57.122Z,20.09
2023-04-20T15:33:23.581Z,20.11
2023-04-20T15:35:50.438Z,20.20
2023-04-20T15:38:16.854Z,20.22
2023-04-20T15:40:43.258Z,20.24
2023-04-20T15:43:09.733Z,20.30
2023-04-20T15:45:36.311Z,20.31
2023-04-20T15:48:02.926Z,20.34
2023-04-20T15:50:29.493Z,20.35
2023-04-20T15:52:55.968Z,20.36
2023-04-20T15:55:22.514Z,20.39
2023-04-20T15:57:48.917Z,20.38
2023-04-20T16:00:15.812Z,20.34
2023-04-20T16:02:42.381Z,20.30
2023-04-20T16:05:09.473Z,20.33
2023-04-20T16:07:36.058Z,20.37
2023-04-20T16:10:03.248Z,20.39
2023-04-20T16:12:29.848Z,20.43
2023-04-20T16:14:57.328Z,20.43
2023-04-20T16:17:24.039Z,20.47
2023-04-20T16:19:50.647Z,20.54
2023-04-20T16:22:17.115Z,20.55
2023-04-20T16:24:43.568Z,20.55
2023-04-20T16:27:09.988Z,20.55
2023-04-20T16:29:36.493Z,20.59
2023-04-20T16:32:02.917Z,20.53
2023-04-20T16:34:30.911Z,20.54
2023-04-20T16:36:57.461Z,20.44
2023-04-20T16:39:24.332Z,20.31
2023-04-20T16:41:51.210Z,20.06
2023-04-20T16:44:17.774Z,19.93
2023-04-20T16:46:44.576Z,20.04
2023-04-20T16:49:11.080Z,19.98
2023-04-20T16:51:38.013Z,20.04
2023-04-20T16:54:04.593Z,20.06
2023-04-20T16:56:30.997Z,20.10
2023-04-20T16:58:57.440Z,20.21
2023-04-20T17:01:23.928Z,20.34
2023-04-20T17:03:51.354Z,20.39
2023-04-20T17:06:18.047Z,20.29
2023-04-20T17:08:44.565Z,20.28
2023-04-20T17:11:11.086Z,20.26
2023-04-20T17:13:38.152Z,20.31
2023-04-20T17:16:04.817Z,20.25
2023-04-20T17:18:34.145Z,20.28
2023-04-20T17:21:01.592Z,20.27
2023-04-20T17:23:28.081Z,20.16
2023-04-20T17:25:54.770Z,20.14
2023-04-20T17:28:21.325Z,20.24
2023-04-20T17:30:47.791Z,20.29
2023-04-20T17:33:14.360Z,20.30
2023-04-20T17:35:40.789Z,20.33
2023-04-20T17:38:07.537Z,20.33
2023-04-20T17:40:34.300Z,20.36
2023-04-20T17:43:01.889Z,20.36
2023-04-20T17:45:28.697Z,20.35
2023-04-20T17:47:55.814Z,20.33
2023-04-20T17:50:22.770Z,20.34
2023-04-20T17:52:49.384Z,20.33
2023-04-20T17:55:15.838Z,20.32
2023-04-20T17:57:42.273Z,20.32
2023-04-20T18:00:11.675Z,20.26
2023-04-20T18:02:38.804Z,20.33
2023-04-20T18:05:06.300Z,20.31
2023-04-20T18:07:32.840Z,20.32
2023-04-20T18:09:59.345Z,20.30
2023-04-20T18:12:25.955Z,20.30
2023-04-20T18:14:52.451Z,20.30
2023-04-20T18:17:18.951Z,20.29
2023-04-20T18:19:45.392Z,20.28
2023-04-20T18:22:11.886Z,20.24
2023-04-20T18:24:38.423Z,20.21
2023-04-20T18:27:04.908Z,20.24
2023-04-20T18:29:31.497Z,20.22
2023-04-20T18:32:01.200Z,20.24
2023-04-20T18:34:31.067Z,20.22
2023-04-20T18:36:58.517Z,20.19
2023-04-20T18:39:25.670Z,20.17
2023-04-20T18:41:52.131Z,20.16
2023-04-20T18:44:18.621Z,20.20
2023-04-20T18:46:45.429Z,20.19
2023-04-20T18:49:11.913Z,20.16
2023-04-20T18:51:38.476Z,20.14
2023-04-20T18:54:05.089Z,20.11
2023-04-20T18:56:32.232Z,20.07
2023-04-20T18:58:59.524Z,20.06
2023-04-20T19:01:26.331Z,20.06
2023-04-20T19:03:53.217Z,20.03
2023-04-20T19:06:19.795Z,20.03
2023-04-20T19:08:46.348Z,20.02
2023-04-20T19:11:12.816Z,20.01
2023-04-20T19:13:44.513Z,20.01
2023-04-20T19:16:12.240Z,20.04
2023-04-20T19:18:39.114Z,20.01
2023-04-20T19:21:05.979Z,20.01
2023-04-20T19:23:32.556Z,20.01
2023-04-20T19:25:59.128Z,20.00
2023-04-20T19:28:25.626Z,19.97
2023-04-20T19:30:52.171Z,19.96
2023-04-20T19:33:18.785Z,19.94
2023-04-20T19:35:50.544Z,19.94
2023-04-20T19:38:21.644Z,19.92
2023-04-20T19:40:48.908Z,19.94
2023-04-20T19:43:16.934Z,19.93
2023-04-20T19:45:43.720Z,19.94
2023-04-20T19:48:10.432Z,19.92
2023-04-20T19:50:37.286Z,19.94
2023-04-20T19:53:04.333Z,19.93
2023-04-20T19:55:31.056Z,19.90
2023-04-20T19:57:57.470Z,19.90
2023-04-20T20:00:23.947Z,19.84
2023-04-20T20:02:50.561Z,19.81
2023-04-20T20:05:17.342Z,19.80
2023-04-20T20:07:43.786Z,19.82
2023-04-20T20:10:10.346Z,19.82
2023-04-20T20:12:36.824Z,19.87
2023-04-20T20:15:04.641Z,19.84
2023-04-20T20:17:31.181Z,19.87
2023-04-20T20:19:58.102Z,19.84
2023-04-20T20:22:24.653Z,19.84
2023-04-20T20:24:54.164Z,19.88
2023-04-20T20:27:21.072Z,19.89
2023-04-20T20:29:47.511Z,19.89
2023-04-20T20:32:13.949Z,19.86
2023-04-20T20:34:41.333Z,19.84
2023-04-20T20:37:10.309Z,19.87
2023-04-20T20:39:37.288Z,19.87
2023-04-20T20:42:04.812Z,19.84
2023-04-20T20:44:39.754Z,19.82
2023-04-20T20:47:06.637Z,19.84
2023-04-20T20:49:33.334Z,19.82
2023-04-20T20:51:59.840Z,19.82
2023-04-20T20:54:26.269Z,19.81
2023-04-20T20:56:52.795Z,19.85
2023-04-20T20:59:19.416Z,19.82
2023-04-20T21:01:46.011Z,19.81
2023-04-20T21:04:12.610Z,19.81
2023-04-20T21:06:39.068Z,19.78
2023-04-20T21:09:05.684Z,19.75
2023-04-20T21:11:32.145Z,19.75
2023-04-20T21:14:01.777Z,19.76
2023-04-20T21:16:28.754Z,19.80
2023-04-20T21:18:55.276Z,19.80
2023-04-20T21:21:21.774Z,19.77
2023-04-20T21:23:49.187Z,19.73
2023-04-20T21:26:16.359Z,19.79
2023-04-20T21:28:42.899Z,19.78
2023-04-20T21:31:09.342Z,19.75
2023-04-20T21:33:36.089Z,19.78
2023-04-20T21:36:02.616Z,19.72
2023-04-20T21:38:29.070Z,19.77
2023-04-20T21:40:55.569Z,19.79
2023-04-20T21:43:22.024Z,19.76
2023-04-20T21:45:48.454Z,19.75
2023-04-20T21:48:14.876Z,19.76
2023-04-20T21:50:41.343Z,19.76
2023-04-20T21:53:07.768Z,19.74
2023-04-20T21:55:34.224Z,19.71
2023-04-20T21:58:00.815Z,19.72
2023-04-20T22:00:27.396Z,19.72
2023-04-20T22:02:54.023Z,19.73
2023-04-20T22:05:20.697Z,19.79
2023-04-20T22:07:47.162Z,19.82
2023-04-20T22:10:13.626Z,19.80
2023-04-20T22:12:42.300Z,19.75
2023-04-20T22:15:13.750Z,19.74
2023-04-20T22:17:41.393Z,19.74
2023-04-20T22:20:10.045Z,19.73
2023-04-20T22:22:37.239Z,19.68
2023-04-20T22:25:04.800Z,19.69
2023-04-20T22:27:32.960Z,19.59
2023-04-20T22:29:59.610Z,19.64
2023-04-20T22:32:26.202Z,19.63
2023-04-20T22:34:52.704Z,19.66
2023-04-20T22:37:19.236Z,19.68
2023-04-20T22:39:45.746Z,19.68
2023-04-20T22:42:12.272Z,19.69
2023-04-20T22:44:38.741Z,19.70
2023-04-20T22:47:05.243Z,19.68
2023-04-20T22:49:32.136Z,19.69
2023-04-20T22:51:58.663Z,19.68
2023-04-20T22:54:26.451Z,19.74
2023-04-20T22:56:53.479Z,19.74
2023-04-20T22:59:20.288Z,19.72
2023-04-20T23:01:46.889Z,19.71
2023-04-20T23:04:13.458Z,19.68
2023-04-20T23:06:43.744Z,19.71
2023-04-20T23:09:12.534Z,19.74
2023-04-20T23:11:39.704Z,19.73
2023-04-20T23:14:06.709Z,19.73
2023-04-20T23:16:34.113Z,19.74
2023-04-20T23:19:01.105Z,19.68
2023-04-20T23:21:28.670Z,19.73
2023-04-20T23:23:57.756Z,19.73
2023-04-20T23:26:24.309Z,19.73
2023-04-20T23:28:52.090Z,19.74
2023-04-20T23:31:21.372Z,19.73
2023-04-20T23:33:48.499Z,19.74
2023-04-20T23:36:15.179Z,19.73
2023-04-20T23:38:41.968Z,19.72
2023-04-20T23:41:13.599Z,19.71
2023-04-20T23:43:41.125Z,19.69
2023-04-20T23:46:08.449Z,19.71
2023-04-20T23:48:34.974Z,19.71
2023-04-20T23:51:01.864Z,19.73
2023-04-20T23:53:28.466Z,19.73
2023-04-20T23:55:59.797Z,19.73
2023-04-20T23:58:27.256Z,19.74
